Data for 10/27/2017

Time Sea-Level Adjusted Pressure Absolute Pressure Temperature Relative Humidity Dew Point   
(mb) (inHg) (mb) (inHg) (C) (F) (%) (C) (F)
00:05 1026 30.3 855 25.25 -0 31.9 78 -3.3 26
00:10 1026 30.3 855 25.25 -0 31.9 79 -3.3 26
00:15 1026 30.3 856 25.28 -0.1 31.8 80 -3.2 26.2
00:20 1026 30.3 856 25.28 -0.2 31.7 80 -3.2 26.2
00:25 1026 30.3 855 25.25 -0.2 31.6 80 -3.2 26.2
00:30 1026 30.3 855 25.25 -0.2 31.6 80 -3.2 26.2
00:35 1026 30.3 855 25.25 -0.2 31.7 79 -3.3 26
00:40 1026 30.3 855 25.25 -0.1 31.8 80 -3.2 26.2
00:45 1026 30.3 855 25.25 -0.2 31.6 80 -3.2 26.2
00:50 1026 30.3 855 25.25 -0.3 31.5 81 -3.2 26.2
00:55 1026 30.3 855 25.25 -0.4 31.4 81 -3.2 26.2
01:00 1026 30.3 855 25.25 -0.2 31.6 80 -3.3 26
01:05 1026 30.3 855 25.25 -0.1 31.8 80 -3.3 26.1
01:10 1026 30.3 855 25.25 -0.3 31.5 80 -3.4 26
01:15 1026 30.3 855 25.25 -0.3 31.4 80 -3.4 25.9
01:20 1026 30.3 855 25.25 -0.4 31.3 80 -3.5 25.8
01:25 1026 30.3 855 25.25 -0.3 31.4 77 -4 24.9
01:30 1026 30.3 855 25.25 -0.5 31.2 78 -3.8 25.1
01:35 1026 30.3 855 25.25 -0.6 31 80 -3.6 25.4
01:40 1026 30.3 855 25.25 -0.5 31.2 80 -3.5 25.6
01:45 1026 30.3 855 25.25 -0.5 31 81 -3.4 25.9
01:50 1026 30.3 855 25.25 -0.5 31.1 82 -3.3 26.1
01:55 1026 30.3 855 25.25 -0.5 31.1 81 -3.3 26
02:00 1026 30.3 855 25.25 -0.6 30.8 81 -3.5 25.7
02:05 1026 30.3 855 25.25 -0.8 30.6 81 -3.5 25.6
02:10 1026 30.3 855 25.25 -0.7 30.7 82 -3.5 25.7
02:15 1026 30.3 855 25.25 -0.8 30.6 82 -3.4 25.8
02:20 1026 30.3 855 25.25 -0.2 31.6 79 -3.5 25.7
02:25 1026 30.3 855 25.25 -0.1 31.9 78 -3.4 25.9
02:30 1026 30.3 855 25.25 0.1 32.1 77 -3.4 25.8
02:35 1026 30.3 855 25.25 0.2 32.4 77 -3.4 25.9
02:40 1026 30.3 855 25.25 0.2 32.3 77 -3.3 26
02:45 1026 30.3 855 25.25 0.2 32.3 78 -3.3 26.1
02:50 1026 30.3 855 25.25 -0 31.9 78 -3.4 25.8
02:55 1026 30.3 855 25.25 -0.3 31.5 80 -3.3 26
03:00 1026 30.3 855 25.25 -0.4 31.2 81 -3.3 26.1
03:05 1026 30.3 855 25.25 -0.7 30.7 82 -3.4 25.9
03:10 1026 30.3 855 25.25 -0.7 30.7 82 -3.4 25.9
03:15 1026 30.3 855 25.25 -0.7 30.7 82 -3.4 25.8
03:20 1026 30.3 855 25.25 -0.9 30.4 82 -3.6 25.6
03:25 1026 30.3 855 25.25 -0.8 30.7 82 -3.5 25.7
03:30 1026 30.3 855 25.25 -0.7 30.7 81 -3.5 25.6
03:35 1026 30.3 855 25.25 -1.2 29.9 83 -3.6 25.4
03:40 1026 30.3 855 25.25 -1.6 29.2 85 -3.8 25.2
03:45 1026 30.3 855 25.25 -1.5 29.3 86 -3.6 25.5
03:50 1026 30.3 855 25.25 -0.7 30.7 78 -4.1 24.7
03:55 1026 30.3 855 25.25 -0.4 31.3 78 -3.8 25.2
04:00 1026 30.3 855 25.25 -1 30.2 81 -4 24.9
04:05 1026 30.3 855 25.25 -1 30.1 80 -4.1 24.7
04:10 1026 30.3 855 25.25 -0.9 30.4 80 -4 24.8
04:15 1026 30.3 855 25.25 -0.9 30.4 80 -3.9 25
04:20 1026 30.3 855 25.25 -1.1 30 81 -3.9 25
04:25 1026 30.3 855 25.25 -1.5 29.3 84 -3.9 24.9
04:30 1026 30.3 855 25.25 -1.6 29.1 84 -3.9 25
04:35 1026 30.3 855 25.25 -1.6 29.1 85 -3.8 25.1
04:40 1026 30.3 855 25.25 -1.5 29.4 85 -3.7 25.4
04:45 1026 30.3 855 25.25 -1.1 30 83 -3.7 25.4
04:50 1026 30.3 855 25.25 -0.9 30.3 81 -3.8 25.2
04:55 1026 30.3 855 25.25 -1 30.2 83 -3.6 25.6
05:00 1026 30.3 855 25.25 -1.1 29.9 83 -3.7 25.4
05:05 1026 30.3 855 25.25 -1.3 29.7 84 -3.6 25.4
05:10 1026 30.3 855 25.25 -1.3 29.7 84 -3.6 25.5
05:15 1026 30.3 855 25.25 -1.3 29.7 83 -3.8 25.2
05:20 1026 30.3 855 25.25 -1.4 29.4 84 -3.8 25.2
05:25 1026 30.3 855 25.25 -1.6 29 85 -3.8 25.1
05:30 1026 30.3 855 25.25 -1.4 29.5 85 -3.6 25.4
05:35 1026 30.3 855 25.25 -1.2 29.9 84 -3.6 25.5
05:40 1026 30.3 855 25.25 -1.1 30.1 83 -3.6 25.5
05:45 1026 30.3 855 25.25 -1 30.1 84 -3.4 25.8
05:50 1026 30.3 855 25.25 -1 30.2 83 -3.6 25.6
05:55 1026 30.3 855 25.25 -1.1 30 83 -3.6 25.5
06:00 1026 30.3 856 25.28 -1.3 29.6 84 -3.7 25.4
06:05 1026 30.3 855 25.25 -1.4 29.5 84 -3.8 25.2
06:10 1026 30.3 855 25.25 -1.3 29.7 85 -3.6 25.6
06:15 1026 30.3 856 25.28 -1.1 30 83 -3.6 25.5
06:20 1026 30.3 856 25.28 -1.4 29.5 84 -3.7 25.3
06:25 1026 30.3 856 25.28 -1.5 29.4 85 -3.6 25.5
06:30 1026 30.3 855 25.25 -1.3 29.7 84 -3.6 25.6
06:35 1026 30.3 855 25.25 -1.2 29.8 84 -3.6 25.6
06:40 1026 30.3 855 25.25 -1.3 29.7 84 -3.7 25.4
06:45 1026 30.3 855 25.25 -1.3 29.7 83 -3.8 25.1
06:50 1026 30.3 855 25.25 -1.1 30 83 -3.7 25.3
06:55 1026 30.3 855 25.25 -1.1 29.9 83 -3.7 25.3
07:00 1026 30.3 855 25.25 -1.4 29.5 84 -3.7 25.4
07:05 1026 30.3 855 25.25 -1.4 29.5 85 -3.6 25.5
07:10 1026 30.3 855 25.25 -1.2 29.9 84 -3.6 25.6
07:15 1026 30.3 856 25.28 -0.9 30.4 83 -3.4 25.9
07:20 1026 30.3 856 25.28 -0.6 30.9 81 -3.4 25.8
07:25 1026 30.3 855 25.25 -0.5 31.2 81 -3.4 25.9
07:30 1026 30.3 855 25.25 -0.3 31.5 79 -3.4 25.8
07:35 1026 30.3 856 25.28 -0.1 31.8 79 -3.3 26.1
07:40 1027 30.33 856 25.28 -0.1 31.8 79 -3.3 26.1
07:45 1027 30.33 856 25.28 -0.1 31.9 79 -3.3 26.1
07:50 1027 30.33 856 25.28 -0.1 31.9 79 -3.3 26
07:55 1027 30.33 856 25.28 -0.2 31.7 79 -3.3 26
08:00 1027 30.33 856 25.28 -0.2 31.6 79 -3.4 25.9
08:05 1027 30.33 856 25.28 -0.1 31.8 79 -3.3 26
08:10 1027 30.33 856 25.28 0 32 78 -3.3 26
08:15 1027 30.33 856 25.28 0.1 32.2 78 -3.3 26.1
08:20 1027 30.33 856 25.28 0.3 32.5 77 -3.2 26.2
08:25 1027 30.33 856 25.28 0.4 32.7 77 -3.2 26.2
08:30 1027 30.33 856 25.28 0.6 33.1 76 -3.2 26.3
08:35 1027 30.33 856 25.28 0.8 33.5 75 -3.1 26.5
08:40 1027 30.33 856 25.28 1 33.8 75 -3 26.7
08:45 1027 30.33 856 25.28 1.1 34 75 -2.8 27
08:50 1027 30.33 856 25.28 1 33.9 76 -2.8 26.9
08:55 1027 30.33 856 25.28 1 33.8 75 -2.9 26.9
09:00 1027 30.33 856 25.28 1.4 34.5 74 -2.7 27.1
09:05 1027 30.33 856 25.28 1.6 34.9 74 -2.6 27.4
09:10 1027 30.33 856 25.28 1.8 35.3 73 -2.5 27.5
09:15 1027 30.33 856 25.28 2 35.7 72 -2.4 27.7
09:20 1027 30.33 856 25.28 2.2 36 71 -2.5 27.6
09:25 1027 30.33 856 25.28 2.7 36.8 69 -2.4 27.8
09:30 1027 30.33 856 25.28 3.1 37.6 68 -2.3 27.9
09:35 1027 30.33 856 25.28 3.4 38.2 66 -2.4 27.7
09:40 1027 30.33 856 25.28 3.7 38.7 67 -1.9 28.7
09:45 1027 30.33 856 25.28 3.4 38.1 68 -2 28.4
09:50 1027 30.33 856 25.28 2.9 37.2 68 -2.3 27.8
09:55 1027 30.33 856 25.28 2.8 37 67 -2.7 27.2
10:00 1027 30.33 856 25.28 2.9 37.3 65 -3 26.5
10:05 1027 30.33 856 25.28 3 37.3 65 -3.1 26.5
10:10 1027 30.33 856 25.28 2.9 37.3 65 -3.1 26.5
10:15 1027 30.33 856 25.28 3.2 37.8 64 -2.9 26.7
10:20 1027 30.33 856 25.28 4 39.2 57 -3.8 25.2
10:25 1027 30.33 856 25.28 4.6 40.2 58 -2.9 26.7
10:30 1027 30.33 856 25.28 5.2 41.4 56 -2.9 26.7
10:35 1027 30.33 856 25.28 5.6 42 54 -2.9 26.8
10:40 1027 30.33 856 25.28 5.9 42.6 53 -2.9 26.7
10:45 1027 30.33 856 25.28 6.5 43.7 50 -3.2 26.2
10:50 1027 30.33 856 25.28 6.8 44.2 51 -2.7 27.2
10:55 1027 30.33 856 25.28 6.9 44.5 50 -2.7 27.2
11:00 1027 30.33 856 25.28 7.3 45.2 50 -2.5 27.6
11:05 1027 30.33 856 25.28 7.5 45.4 49 -2.5 27.6
11:10 1027 30.33 856 25.28 7.6 45.6 48 -2.6 27.3
11:15 1027 30.33 856 25.28 7.7 45.8 47 -2.8 27
11:20 1027 30.33 856 25.28 7.7 45.9 46 -3.1 26.4
11:25 1027 30.33 856 25.28 7.8 46.1 46 -3 26.5
11:30 1027 30.33 856 25.28 8.2 46.7 43 -3.6 25.6
11:35 1027 30.33 856 25.28 8.4 47.1 44 -3.1 26.4
11:40 1027 30.33 856 25.28 8.5 47.2 41 -4 24.9
11:45 1027 30.33 856 25.28 8.5 47.3 42 -3.5 25.7
11:50 1027 30.33 856 25.28 8.7 47.6 43 -3.2 26.2
11:55 1027 30.33 856 25.28 8.7 47.7 42 -3.5 25.7
12:00 1027 30.33 856 25.28 8.7 47.6 42 -3.4 25.8
12:05 1027 30.33 856 25.28 8.6 47.5 40 -4.1 24.5
12:10 1027 30.33 856 25.28 8.5 47.3 41 -4 24.8
12:15 1027 30.33 856 25.28 8.7 47.6 40 -4.3 24.3
12:20 1027 30.33 856 25.28 8.5 47.4 42 -3.7 25.3
12:25 1027 30.33 856 25.28 8.4 47.1 42 -3.9 25
12:30 1027 30.33 856 25.28 8.5 47.3 40 -4.4 24.1
12:35 1027 30.33 856 25.28 8.4 47 41 -4 24.8
12:40 1027 30.33 856 25.28 8.4 47.1 43 -3.6 25.5
12:45 1027 30.33 856 25.28 8 46.4 43 -3.7 25.4
12:50 1027 30.33 856 25.28 7.9 46.3 43 -3.7 25.3
12:55 1026 30.3 856 25.28 8.6 47.5 42 -3.6 25.5
13:00 1026 30.3 856 25.28 9.1 48.5 39 -4 24.8
13:05 1026 30.3 856 25.28 9.3 48.7 38 -4.1 24.5
13:10 1026 30.3 855 25.25 9.4 49 39 -3.8 25.2
13:15 1026 30.3 855 25.25 9.8 49.7 35 -5 23.1
13:20 1026 30.3 855 25.25 10.2 50.4 35 -4.5 23.8
13:25 1026 30.3 855 25.25 10.3 50.6 36 -4.2 24.4
13:30 1026 30.3 855 25.25 9.3 48.8 38 -4.2 24.5
13:35 1026 30.3 855 25.25 9.3 48.7 39 -4 24.8
13:40 1026 30.3 855 25.25 9.4 49 38 -4 24.8
13:45 1026 30.3 855 25.25 9.6 49.2 38 -4.1 24.7
13:50 1026 30.3 855 25.25 10 49.9 38 -3.6 25.4
13:55 1026 30.3 855 25.25 9.9 49.9 38 -3.8 25.2
14:00 1026 30.3 855 25.25 10.1 50.2 38 -3.6 25.6
14:05 1026 30.3 855 25.25 10.2 50.3 36 -4.1 24.7
14:10 1026 30.3 855 25.25 9.6 49.3 39 -3.8 25.2
14:15 1026 30.3 855 25.25 9.3 48.7 38 -4.1 24.6
14:20 1026 30.3 855 25.25 9.1 48.3 39 -4 24.8
14:25 1026 30.3 855 25.25 9.1 48.4 38 -4.4 24.1
14:30 1026 30.3 855 25.25 9 48.3 38 -4.5 23.9
14:35 1026 30.3 855 25.25 8.9 48 39 -4.4 24.1
14:40 1026 30.3 855 25.25 9.2 48.5 38 -4.4 24.1
14:45 1026 30.3 855 25.25 9.1 48.4 38 -4.4 24.1
14:50 1026 30.3 855 25.25 9.5 49.1 38 -4.2 24.4
14:55 1026 30.3 855 25.25 9.4 48.9 37 -4.4 24.1
15:00 1026 30.3 855 25.25 9.1 48.3 38 -4.5 24
15:05 1026 30.3 855 25.25 8.9 48.1 39 -4.4 24
15:10 1026 30.3 855 25.25 9.1 48.4 38 -4.5 24
15:15 1026 30.3 855 25.25 9.3 48.7 38 -4.4 24.2
15:20 1026 30.3 855 25.25 9.2 48.6 38 -4.5 23.9
15:25 1026 30.3 855 25.25 9.2 48.5 37 -4.7 23.6
15:30 1026 30.3 855 25.25 9.1 48.4 38 -4.6 23.8
15:35 1026 30.3 855 25.25 9.3 48.7 36 -4.8 23.3
15:40 1026 30.3 855 25.25 9.5 49.1 36 -4.7 23.5
15:45 1026 30.3 855 25.25 9.5 49.1 37 -4.6 23.7
15:50 1026 30.3 855 25.25 9.7 49.5 36 -4.6 23.6
15:55 1026 30.3 855 25.25 10 49.9 36 -4.5 23.9
16:00 1026 30.3 855 25.25 9.8 49.6 36 -4.4 24.1
16:05 1026 30.3 855 25.25 9.4 48.9 38 -4.2 24.4
16:10 1026 30.3 855 25.25 9.3 48.8 38 -4.2 24.4
16:15 1025 30.27 855 25.25 9.4 48.8 39 -3.8 25.1
16:20 1025 30.27 855 25.25 9.2 48.6 41 -3.3 26.1
16:25 1025 30.27 855 25.25 9.1 48.4 41 -3.5 25.7
16:30 1025 30.27 855 25.25 9 48.2 42 -3.3 26.1
16:35 1025 30.27 855 25.25 9 48.2 42 -3.3 26.1
16:40 1025 30.27 855 25.25 9 48.2 42 -3.1 26.5
16:45 1025 30.27 855 25.25 9.1 48.3 42 -3 26.5
16:50 1025 30.27 854 25.22 9 48.2 42 -3.1 26.5
16:55 1025 30.27 854 25.22 9 48.2 43 -2.8 26.9
17:00 1025 30.27 854 25.22 8.9 48.1 44 -2.5 27.5
17:05 1025 30.27 854 25.22 8.8 47.8 45 -2.4 27.6
17:10 1025 30.27 854 25.22 8.7 47.7 45 -2.4 27.7
17:15 1025 30.27 854 25.22 8.8 47.8 46 -2.1 28.2
17:20 1025 30.27 854 25.22 8.6 47.5 47 -2.2 28.1
17:25 1025 30.27 854 25.22 8.5 47.2 47 -2.2 28.1
17:30 1025 30.27 854 25.22 8.4 47.1 47 -2.1 28.2
17:35 1025 30.27 854 25.22 8.4 47 47 -2.2 28
17:40 1025 30.27 854 25.22 8.3 47 47 -2.4 27.7
17:45 1025 30.27 854 25.22 8.4 47 48 -2 28.4
17:50 1025 30.27 854 25.22 8.3 46.9 49 -1.9 28.6
17:55 1025 30.27 855 25.25 8.2 46.8 49 -1.9 28.6
18:00 1025 30.27 855 25.25 8.3 46.9 49 -1.9 28.6
18:05 1025 30.27 854 25.22 8.3 47 49 -1.8 28.8
18:10 1025 30.27 854 25.22 8.3 46.9 50 -1.5 29.2
18:15 1025 30.27 854 25.22 8.2 46.7 51 -1.3 29.7
18:20 1025 30.27 854 25.22 8.1 46.5 52 -1.3 29.7
18:25 1025 30.27 854 25.22 8.1 46.6 51 -1.4 29.4
18:30 1025 30.27 854 25.22 8.1 46.6 50 -1.5 29.2
18:35 1025 30.27 854 25.22 8.1 46.6 52 -1 30.1
18:40 1025 30.27 854 25.22 8 46.4 53 -0.9 30.3
18:45 1025 30.27 854 25.22 7.9 46.3 52 -1.4 29.4
18:50 1025 30.27 854 25.22 8 46.4 52 -1.2 29.8
18:55 1025 30.27 854 25.22 8.2 46.8 51 -1.4 29.5
19:00 1025 30.27 854 25.22 8.3 46.9 51 -1.1 30
19:05 1025 30.27 854 25.22 8.2 46.8 51 -1.3 29.7
19:10 1025 30.27 854 25.22 8.3 47 54 -0.5 31.1
19:15 1025 30.27 854 25.22 8.1 46.6 57 0.1 32.1
19:20 1025 30.27 854 25.22 7.9 46.2 58 0.2 32.3
19:25 1025 30.27 854 25.22 7.8 46 58 0.2 32.3
19:30 1025 30.27 854 25.22 7.8 46.1 58 0.1 32.2
19:35 1025 30.27 854 25.22 7.8 46.1 59 0.4 32.8
19:40 1025 30.27 854 25.22 7.9 46.1 61 0.8 33.5
19:45 1025 30.27 854 25.22 7.8 46.1 62 1 33.8
19:50 1025 30.27 854 25.22 7.7 45.8 63 1.1 34
19:55 1025 30.27 854 25.22 7.6 45.7 64 1.2 34.2
20:00 1025 30.27 854 25.22 7.7 45.8 63 1.2 34.1
20:05 1025 30.27 854 25.22 7.5 45.6 64 1.1 34
20:10 1025 30.27 854 25.22 7.5 45.4 63 1 33.8
20:15 1025 30.27 854 25.22 7.4 45.4 63 0.8 33.5
20:20 1025 30.27 854 25.22 7.4 45.3 63 0.9 33.6
20:25 1025 30.27 854 25.22 7.4 45.3 64 1 33.7
20:30 1025 30.27 854 25.22 7.3 45.1 64 1 33.8
20:35 1025 30.27 854 25.22 7 44.6 65 1 33.8
20:40 1025 30.27 854 25.22 6.7 44.1 66 1 33.7
20:45 1025 30.27 854 25.22 6.6 43.9 66 0.8 33.4
20:50 1025 30.27 854 25.22 6.6 44 66 0.8 33.5
20:55 1025 30.27 854 25.22 6.5 43.6 67 0.9 33.5
21:00 1025 30.27 854 25.22 6.3 43.3 68 0.9 33.5
21:05 1025 30.27 854 25.22 6.2 43.1 69 0.9 33.7
21:10 1025 30.27 854 25.22 6 42.7 71 1 33.9
21:15 1025 30.27 854 25.22 5.8 42.5 71 0.9 33.6
21:20 1025 30.27 854 25.22 5.6 42.2 71 0.9 33.5
21:25 1024 30.24 854 25.22 5.5 41.9 72 0.9 33.6
21:30 1025 30.27 854 25.22 5.3 41.6 72 0.7 33.3
21:35 1025 30.27 854 25.22 5.2 41.4 72 0.7 33.3
21:40 1025 30.27 854 25.22 5.3 41.6 72 0.6 33.1
21:45 1025 30.27 854 25.22 5.3 41.5 72 0.6 33.1
21:50 1025 30.27 854 25.22 5.2 41.4 72 0.6 33.1
21:55 1025 30.27 854 25.22 5.1 41.3 71 0.4 32.7
22:00 1025 30.27 854 25.22 5.1 41.1 71 0.3 32.6
22:05 1025 30.27 854 25.22 5.3 41.5 70 0.2 32.3
22:10 1025 30.27 854 25.22 5.2 41.4 72 0.6 33
22:15 1025 30.27 854 25.22 4.6 40.4 75 0.6 33
22:20 1025 30.27 854 25.22 4.5 40.1 75 0.4 32.7
22:25 1025 30.27 854 25.22 4.6 40.4 74 0.4 32.8
22:30 1025 30.27 854 25.22 4.7 40.4 74 0.4 32.7
22:35 1025 30.27 854 25.22 4.5 40.1 75 0.5 32.9
22:40 1025 30.27 854 25.22 4.7 40.4 72 0.1 32.2
22:45 1025 30.27 854 25.22 4.7 40.5 72 0.2 32.3
22:50 1025 30.27 854 25.22 4.7 40.5 72 0.1 32.2
22:55 1025 30.27 854 25.22 4.6 40.2 74 0.3 32.5
23:00 1025 30.27 854 25.22 4 39.1 77 0.4 32.7
23:05 1025 30.27 854 25.22 3.7 38.6 76 -0.2 31.6
23:10 1025 30.27 854 25.22 3.8 38.9 74 -0.4 31.3
23:15 1025 30.27 854 25.22 4 39.1 74 -0.2 31.6
23:20 1025 30.27 854 25.22 4 39.2 74 -0.2 31.7
23:25 1025 30.27 854 25.22 4.1 39.4 74 -0.2 31.6
23:30 1025 30.27 854 25.22 4.1 39.3 74 -0.2 31.7
23:35 1025 30.27 854 25.22 4 39.2 74 -0.3 31.5
23:40 1025 30.27 854 25.22 3.9 39 73 -0.6 31
23:45 1025 30.27 854 25.22 4.1 39.3 71 -0.6 30.9
23:50 1025 30.27 854 25.22 4.2 39.5 70 -0.7 30.7
23:55 1025 30.27 854 25.22 4.3 39.8 71 -0.4 31.3
24:00 1025 30.27 854 25.22 4.2 39.6 71 -0.5 31.1